createdAt,value
2017-09-16T00:00:53.710Z,9.40
2017-09-16T00:03:21.138Z,9.40
2017-09-16T00:05:48.556Z,9.40
2017-09-16T00:08:15.978Z,9.40
2017-09-16T00:10:43.409Z,9.30
2017-09-16T00:13:11.600Z,9.30
2017-09-16T00:15:39.803Z,9.20
2017-09-16T00:18:07.220Z,9.10
2017-09-16T00:20:35.407Z,9.20
2017-09-16T00:23:02.891Z,9.20
2017-09-16T00:25:30.300Z,9.10
2017-09-16T00:27:57.721Z,9.00
2017-09-16T00:30:25.174Z,9.10
2017-09-16T00:32:52.584Z,9.10
2017-09-16T00:35:20.790Z,9.10
2017-09-16T00:37:48.209Z,9.10
2017-09-16T00:40:16.404Z,9.00
2017-09-16T00:42:43.825Z,9.00
2017-09-16T00:45:11.260Z,9.00
2017-09-16T00:47:38.677Z,9.00
2017-09-16T00:50:06.129Z,9.00
2017-09-16T00:52:34.304Z,9.00
2017-09-16T00:55:01.727Z,9.00
2017-09-16T00:57:29.152Z,9.00
2017-09-16T00:59:57.340Z,9.00
2017-09-16T01:02:24.773Z,9.00
2017-09-16T01:04:52.219Z,9.00
2017-09-16T01:07:19.644Z,8.90
2017-09-16T01:09:47.833Z,8.90
2017-09-16T01:12:15.273Z,8.90
2017-09-16T01:14:43.465Z,8.90
2017-09-16T01:17:10.898Z,8.90
2017-09-16T01:19:38.326Z,9.00
2017-09-16T01:22:05.761Z,8.90
2017-09-16T01:24:33.176Z,8.90
2017-09-16T01:27:01.386Z,9.00
2017-09-16T01:29:28.817Z,9.00
2017-09-16T01:31:56.254Z,9.00
2017-09-16T01:34:23.687Z,9.00
2017-09-16T01:36:51.120Z,9.00
2017-09-16T01:39:18.552Z,9.10
2017-09-16T01:41:45.984Z,9.10
2017-09-16T01:44:14.184Z,9.10
2017-09-16T01:46:41.616Z,9.10
2017-09-16T01:49:09.817Z,9.00
2017-09-16T01:51:37.261Z,9.10
2017-09-16T01:54:05.448Z,9.00
2017-09-16T01:56:32.881Z,9.00
2017-09-16T01:59:01.081Z,9.10
2017-09-16T02:01:28.517Z,9.10
2017-09-16T02:03:56.706Z,9.10
2017-09-16T02:06:24.140Z,9.10
2017-09-16T02:08:52.341Z,9.10
2017-09-16T02:11:19.769Z,9.10
2017-09-16T02:13:47.966Z,9.20
2017-09-16T02:16:15.392Z,9.20
2017-09-16T02:18:42.813Z,9.20
2017-09-16T02:21:10.286Z,9.20
2017-09-16T02:23:37.711Z,9.20
2017-09-16T02:26:05.140Z,9.20
2017-09-16T02:28:33.333Z,9.20
2017-09-16T02:31:00.769Z,9.20
2017-09-16T02:33:28.956Z,9.30
2017-09-16T02:35:56.385Z,9.20
2017-09-16T02:38:23.807Z,9.20
2017-09-16T02:40:51.242Z,9.30
2017-09-16T02:43:18.661Z,9.30
2017-09-16T02:45:46.859Z,9.30
2017-09-16T02:48:14.272Z,9.30
2017-09-16T02:50:41.703Z,9.30
2017-09-16T02:53:09.129Z,9.30
2017-09-16T02:55:36.557Z,9.30
2017-09-16T02:58:03.985Z,9.20
2017-09-16T03:00:31.414Z,9.20
2017-09-16T03:02:58.845Z,9.20
2017-09-16T03:05:27.023Z,9.20
2017-09-16T03:07:54.457Z,9.20
2017-09-16T03:10:21.876Z,9.20
2017-09-16T03:12:49.317Z,9.20
2017-09-16T03:15:16.732Z,9.20
2017-09-16T03:17:44.930Z,9.20
2017-09-16T03:20:12.374Z,9.20
2017-09-16T03:22:40.582Z,9.10
2017-09-16T03:25:08.006Z,9.10
2017-09-16T03:27:36.234Z,9.10
2017-09-16T03:30:03.641Z,9.10
2017-09-16T03:32:31.081Z,9.10
2017-09-16T03:34:59.263Z,9.20
2017-09-16T03:37:27.456Z,9.20
2017-09-16T03:39:54.887Z,9.10
2017-09-16T03:42:23.086Z,9.10
2017-09-16T03:44:51.404Z,9.00
2017-09-16T03:47:18.842Z,9.10
2017-09-16T03:49:46.258Z,9.20
2017-09-16T03:52:14.448Z,9.30
2017-09-16T03:54:41.877Z,9.30
2017-09-16T03:57:09.318Z,9.30
2017-09-16T03:59:36.750Z,9.20
2017-09-16T04:02:15.854Z,9.10
2017-09-16T04:04:43.277Z,9.10
2017-09-16T04:07:10.709Z,9.00
2017-09-16T04:09:38.441Z,9.00
2017-09-16T04:12:05.872Z,9.00
2017-09-16T04:14:34.076Z,9.00
2017-09-16T04:17:01.501Z,8.90
2017-09-16T04:19:29.707Z,9.00
2017-09-16T04:21:57.149Z,8.90
2017-09-16T04:24:24.581Z,9.00
2017-09-16T04:26:52.777Z,8.90
2017-09-16T04:29:20.208Z,8.90
2017-09-16T04:31:48.405Z,8.90
2017-09-16T04:34:15.836Z,8.90
2017-09-16T04:36:43.257Z,8.90
2017-09-16T04:39:10.700Z,8.90
2017-09-16T04:41:38.126Z,8.90
2017-09-16T04:44:06.328Z,8.90
2017-09-16T04:46:33.762Z,8.90
2017-09-16T04:49:01.192Z,8.90
2017-09-16T04:51:28.622Z,8.90
2017-09-16T04:53:56.076Z,8.90
2017-09-16T04:56:23.497Z,8.80
2017-09-16T04:58:50.928Z,8.80
2017-09-16T05:01:19.120Z,8.80
2017-09-16T05:03:46.620Z,8.80
2017-09-16T05:06:14.045Z,8.70
2017-09-16T05:08:41.477Z,8.70
2017-09-16T05:11:09.670Z,8.70
2017-09-16T05:13:37.117Z,8.70
2017-09-16T05:16:05.942Z,8.60
2017-09-16T05:18:33.390Z,8.60
2017-09-16T05:21:00.816Z,8.70
2017-09-16T05:23:30.040Z,8.70
2017-09-16T05:25:58.221Z,8.70
2017-09-16T05:28:25.648Z,8.60
2017-09-16T05:30:53.077Z,8.60
2017-09-16T05:33:20.517Z,8.60
2017-09-16T05:35:47.953Z,8.60
2017-09-16T05:38:15.385Z,8.70
2017-09-16T05:40:42.817Z,8.70
2017-09-16T05:43:10.261Z,8.70
2017-09-16T05:45:37.681Z,8.70
2017-09-16T05:48:05.126Z,8.70
2017-09-16T05:50:32.563Z,8.70
2017-09-16T05:53:00.756Z,8.80
2017-09-16T05:55:28.189Z,8.70
2017-09-16T05:57:56.373Z,8.80
2017-09-16T06:00:23.804Z,8.80
2017-09-16T06:02:52.010Z,8.90
2017-09-16T06:05:19.432Z,8.80
2017-09-16T06:07:47.629Z,8.80
2017-09-16T06:10:15.060Z,8.70
2017-09-16T06:12:42.493Z,8.80
2017-09-16T06:15:09.935Z,8.80
2017-09-16T06:17:37.386Z,8.90
2017-09-16T06:20:04.808Z,8.90
2017-09-16T06:22:34.096Z,9.10
2017-09-16T06:25:02.301Z,9.20
2017-09-16T06:27:29.730Z,9.20
2017-09-16T06:29:57.929Z,9.30
2017-09-16T06:32:25.351Z,9.30
2017-09-16T06:34:52.787Z,9.40
2017-09-16T06:37:20.226Z,9.40
2017-09-16T06:39:48.421Z,9.60
2017-09-16T06:42:15.850Z,9.60
2017-09-16T06:44:43.290Z,9.60
2017-09-16T06:47:10.718Z,9.60
2017-09-16T06:49:38.914Z,9.20
2017-09-16T06:52:06.346Z,9.10
2017-09-16T06:54:33.783Z,9.10
2017-09-16T06:57:01.212Z,9.10
2017-09-16T06:59:28.646Z,9.20
2017-09-16T07:01:56.081Z,9.20
2017-09-16T07:04:24.296Z,9.20
2017-09-16T07:06:51.734Z,9.20
2017-09-16T07:09:19.180Z,9.10
2017-09-16T07:11:47.383Z,9.10
2017-09-16T07:14:14.822Z,9.10
2017-09-16T07:16:42.258Z,9.20
2017-09-16T07:19:10.449Z,9.40
2017-09-16T07:21:37.937Z,9.30
2017-09-16T07:24:05.352Z,9.40
2017-09-16T07:26:33.581Z,9.30
2017-09-16T07:29:01.012Z,9.30
2017-09-16T07:31:28.468Z,9.40
2017-09-16T07:33:55.894Z,9.40
2017-09-16T07:36:24.103Z,9.60
2017-09-16T07:38:51.905Z,9.60
2017-09-16T07:41:19.341Z,9.70
2017-09-16T07:43:46.756Z,9.70
2017-09-16T07:46:20.447Z,9.80
2017-09-16T07:48:48.063Z,9.80
2017-09-16T07:51:15.503Z,9.80
2017-09-16T07:53:42.930Z,9.90
2017-09-16T07:56:11.139Z,10.10
2017-09-16T07:58:38.574Z,10.00
2017-09-16T08:01:06.008Z,10.00
2017-09-16T08:03:34.209Z,10.30
2017-09-16T08:06:01.648Z,10.30
2017-09-16T08:08:29.850Z,10.50
2017-09-16T08:10:57.294Z,10.50
2017-09-16T08:13:24.729Z,10.30
2017-09-16T08:15:52.960Z,10.70
2017-09-16T08:18:20.383Z,10.70
2017-09-16T08:20:47.811Z,10.70
2017-09-16T08:23:16.001Z,10.80
2017-09-16T08:25:43.464Z,10.80
2017-09-16T08:28:11.648Z,11.00
2017-09-16T08:30:39.092Z,11.00
2017-09-16T08:33:06.556Z,11.00
2017-09-16T08:35:34.013Z,11.10
2017-09-16T08:38:01.448Z,11.20
2017-09-16T08:40:29.645Z,11.10
2017-09-16T08:42:57.085Z,11.10
2017-09-16T08:45:25.282Z,11.30
2017-09-16T08:47:52.715Z,11.30
2017-09-16T08:50:20.923Z,11.50
2017-09-16T08:52:48.359Z,11.50
2017-09-16T08:55:15.874Z,11.70
2017-09-16T08:57:43.300Z,12.00
2017-09-16T09:00:10.727Z,12.20
2017-09-16T09:02:38.166Z,12.30
2017-09-16T09:05:05.601Z,12.30
2017-09-16T09:07:33.038Z,12.40
2017-09-16T09:10:00.468Z,12.70
2017-09-16T09:12:27.907Z,12.80
2017-09-16T09:14:56.111Z,13.30
2017-09-16T09:17:23.549Z,13.30
2017-09-16T09:19:51.031Z,13.90
2017-09-16T09:22:18.483Z,14.20
2017-09-16T09:24:45.901Z,14.60
2017-09-16T09:27:14.108Z,15.10
2017-09-16T09:29:41.528Z,15.00
2017-09-16T09:32:09.728Z,15.50
2017-09-16T09:34:37.171Z,15.40
2017-09-16T09:37:05.376Z,16.20
2017-09-16T09:39:32.808Z,16.10
2017-09-16T09:42:00.245Z,16.40
2017-09-16T09:44:28.451Z,17.00
2017-09-16T09:46:55.888Z,17.00
2017-09-16T09:49:24.084Z,17.30
2017-09-16T09:51:54.669Z,17.30
2017-09-16T09:54:22.102Z,17.30
2017-09-16T09:56:49.545Z,17.20
2017-09-16T09:59:16.983Z,17.30
2017-09-16T10:01:44.411Z,17.50
2017-09-16T10:04:12.616Z,17.70
2017-09-16T10:06:40.040Z,17.70
2017-09-16T10:09:08.233Z,17.90
2017-09-16T10:11:35.674Z,17.90
2017-09-16T10:14:03.877Z,18.40
2017-09-16T10:16:31.325Z,18.40
2017-09-16T10:18:58.847Z,18.70
2017-09-16T10:21:26.285Z,18.90
2017-09-16T10:23:53.772Z,18.90
2017-09-16T10:26:21.978Z,19.30
2017-09-16T10:28:49.403Z,19.20
2017-09-16T10:31:16.828Z,19.40
2017-09-16T10:33:44.268Z,19.30
2017-09-16T10:36:11.701Z,19.20
2017-09-16T10:38:39.132Z,19.30
2017-09-16T10:41:07.332Z,19.20
2017-09-16T10:43:34.766Z,19.20
2017-09-16T10:46:02.967Z,19.40
2017-09-16T10:48:30.403Z,19.40
2017-09-16T10:50:58.607Z,19.60
2017-09-16T10:53:26.042Z,19.60
2017-09-16T10:55:54.244Z,19.70
2017-09-16T10:58:21.689Z,19.70
2017-09-16T11:00:49.108Z,19.10
2017-09-16T11:03:16.549Z,18.70
2017-09-16T11:05:43.994Z,18.50
2017-09-16T11:08:11.416Z,18.40
2017-09-16T11:10:38.854Z,18.20
2017-09-16T11:13:07.058Z,18.10
2017-09-16T11:15:34.484Z,18.10
2017-09-16T11:18:02.692Z,18.00
2017-09-16T11:20:30.196Z,18.00
2017-09-16T11:22:57.641Z,17.80
2017-09-16T11:25:25.068Z,17.70
2017-09-16T11:27:52.520Z,17.70
2017-09-16T11:30:19.942Z,17.60
2017-09-16T11:32:48.156Z,17.50
2017-09-16T11:35:15.573Z,17.50
2017-09-16T11:37:43.026Z,17.40
2017-09-16T11:40:11.216Z,17.30
2017-09-16T11:42:38.657Z,17.30
2017-09-16T11:45:06.859Z,17.30
2017-09-16T11:47:34.418Z,17.30
2017-09-16T11:50:01.943Z,17.60
2017-09-16T11:52:29.364Z,17.60
2017-09-16T11:54:56.801Z,17.80
2017-09-16T11:57:24.238Z,17.90
2017-09-16T11:59:51.679Z,17.90
2017-09-16T12:02:19.874Z,17.90
2017-09-16T12:04:47.305Z,17.90
2017-09-16T12:07:15.502Z,17.60
2017-09-16T12:09:42.937Z,17.60
2017-09-16T12:12:11.136Z,17.60
2017-09-16T12:14:38.638Z,17.60
2017-09-16T12:17:06.067Z,17.50
2017-09-16T12:19:33.499Z,17.50
2017-09-16T12:22:00.934Z,17.40
2017-09-16T12:24:28.381Z,17.40
2017-09-16T12:26:55.791Z,17.50
2017-09-16T12:29:23.238Z,17.30
2017-09-16T12:31:50.700Z,17.40
2017-09-16T12:34:18.119Z,17.30
2017-09-16T12:36:46.394Z,17.20
2017-09-16T12:39:13.818Z,17.20
2017-09-16T12:41:41.253Z,17.00
2017-09-16T12:44:08.693Z,17.00
2017-09-16T12:46:36.122Z,17.10
2017-09-16T12:49:03.583Z,17.10
2017-09-16T12:51:31.010Z,17.00
2017-09-16T12:53:58.445Z,17.10
2017-09-16T12:56:25.873Z,17.10
2017-09-16T12:58:53.309Z,17.00
2017-09-16T13:01:21.523Z,16.90
2017-09-16T13:03:48.941Z,16.80
2017-09-16T13:06:17.141Z,16.90
2017-09-16T13:08:44.668Z,16.90
2017-09-16T13:11:12.137Z,16.90
2017-09-16T13:13:39.561Z,17.00
2017-09-16T13:16:06.984Z,16.90
2017-09-16T13:18:34.446Z,16.90
2017-09-16T13:21:01.857Z,16.90
2017-09-16T13:23:30.072Z,17.00
2017-09-16T13:25:57.506Z,17.00
2017-09-16T13:28:24.934Z,16.80
2017-09-16T13:30:52.368Z,16.80
2017-09-16T13:33:20.565Z,17.00
2017-09-16T13:35:48.008Z,17.00
2017-09-16T13:38:15.439Z,17.00
2017-09-16T13:40:42.888Z,17.10
2017-09-16T13:43:10.312Z,17.00
2017-09-16T13:45:38.518Z,16.80
2017-09-16T13:48:05.950Z,16.80
2017-09-16T13:50:33.381Z,16.70
2017-09-16T13:53:00.817Z,16.60
2017-09-16T13:55:28.265Z,16.30
2017-09-16T13:57:55.701Z,16.30
2017-09-16T14:00:23.146Z,16.30
2017-09-16T14:02:50.580Z,16.10
2017-09-16T14:05:18.785Z,16.00
2017-09-16T14:07:46.221Z,16.00
2017-09-16T14:10:13.657Z,16.00
2017-09-16T14:12:41.857Z,16.00
2017-09-16T14:15:09.287Z,16.00
2017-09-16T14:17:36.745Z,15.90
2017-09-16T14:20:04.173Z,15.90
2017-09-16T14:22:31.606Z,15.80
2017-09-16T14:24:59.032Z,15.90
2017-09-16T14:27:27.236Z,15.70
2017-09-16T14:29:54.678Z,15.70
2017-09-16T14:32:22.663Z,15.70
2017-09-16T14:34:50.093Z,15.50
2017-09-16T14:37:18.300Z,15.50
2017-09-16T14:39:45.757Z,15.50
2017-09-16T14:42:13.194Z,15.60
2017-09-16T14:44:40.632Z,15.50
2017-09-16T14:47:08.051Z,15.50
2017-09-16T14:49:35.480Z,15.50
2017-09-16T14:52:02.928Z,15.50
2017-09-16T14:54:30.352Z,15.50
2017-09-16T14:56:58.568Z,15.40
2017-09-16T14:59:25.998Z,15.30
2017-09-16T15:01:54.215Z,15.20
2017-09-16T15:04:21.705Z,15.20
2017-09-16T15:06:49.148Z,15.00
2017-09-16T15:09:16.581Z,14.90
2017-09-16T15:11:44.012Z,14.90
2017-09-16T15:14:11.446Z,14.90
2017-09-16T15:16:39.650Z,14.80
2017-09-16T15:19:07.069Z,14.80
2017-09-16T15:21:35.273Z,14.80
2017-09-16T15:24:02.704Z,14.70
2017-09-16T15:26:30.913Z,14.60
2017-09-16T15:28:58.332Z,14.60
2017-09-16T15:31:26.545Z,14.50
2017-09-16T15:33:53.973Z,14.50
2017-09-16T15:36:22.186Z,14.70
2017-09-16T15:38:49.617Z,14.70
2017-09-16T15:41:17.049Z,14.50
2017-09-16T15:43:44.481Z,14.50
2017-09-16T15:46:11.930Z,14.40
2017-09-16T15:48:39.364Z,14.30
2017-09-16T15:51:06.798Z,14.30
2017-09-16T15:53:34.220Z,14.20
2017-09-16T15:56:01.656Z,14.20
2017-09-16T15:58:29.093Z,14.10
2017-09-16T16:00:56.521Z,14.10
2017-09-16T16:03:24.711Z,14.00
2017-09-16T16:05:52.150Z,14.00
2017-09-16T16:08:20.340Z,14.20
2017-09-16T16:10:47.765Z,14.20
2017-09-16T16:13:15.969Z,14.30
2017-09-16T16:15:44.267Z,14.30
2017-09-16T16:18:11.701Z,14.40
2017-09-16T16:20:39.130Z,14.40
2017-09-16T16:23:06.553Z,14.30
2017-09-16T16:25:33.987Z,14.30
2017-09-16T16:28:01.441Z,14.20
2017-09-16T16:30:28.857Z,14.20
2017-09-16T16:32:57.059Z,14.20
2017-09-16T16:35:24.493Z,14.20
2017-09-16T16:37:52.692Z,14.00
2017-09-16T16:40:20.125Z,14.00
2017-09-16T16:42:48.373Z,14.10
2017-09-16T16:45:15.845Z,14.00
2017-09-16T16:47:43.280Z,14.00
2017-09-16T16:50:10.786Z,14.00
2017-09-16T16:52:38.220Z,14.00
2017-09-16T16:55:05.653Z,13.90
2017-09-16T16:57:33.089Z,13.90
2017-09-16T17:00:00.521Z,14.00
2017-09-16T17:02:27.957Z,13.90
2017-09-16T17:04:56.149Z,13.70
2017-09-16T17:07:23.589Z,13.70
2017-09-16T17:09:51.782Z,13.70
2017-09-16T17:12:19.212Z,13.70
2017-09-16T17:14:47.417Z,13.60
2017-09-16T17:17:14.858Z,13.60
2017-09-16T17:19:43.048Z,13.60
2017-09-16T17:22:10.495Z,13.60
2017-09-16T17:24:38.688Z,13.60
2017-09-16T17:27:06.151Z,13.60
2017-09-16T17:29:33.587Z,13.60
2017-09-16T17:32:01.044Z,13.50
2017-09-16T17:34:29.240Z,13.30
2017-09-16T17:36:56.677Z,13.20
2017-09-16T17:39:24.103Z,13.20
2017-09-16T17:41:51.532Z,13.10
2017-09-16T17:44:18.972Z,13.10
2017-09-16T17:46:46.399Z,13.00
2017-09-16T17:49:13.841Z,12.90
2017-09-16T17:51:42.050Z,13.00
2017-09-16T17:54:09.485Z,13.00
2017-09-16T17:56:37.685Z,13.00
2017-09-16T17:59:05.117Z,13.00
2017-09-16T18:01:32.558Z,12.90
2017-09-16T18:03:59.985Z,12.90
2017-09-16T18:06:27.421Z,12.90
2017-09-16T18:08:54.854Z,12.90
2017-09-16T18:11:22.286Z,12.90
2017-09-16T18:13:50.485Z,12.90
2017-09-16T18:16:17.915Z,12.80
2017-09-16T18:18:46.126Z,12.80
2017-09-16T18:21:13.558Z,12.80
2017-09-16T18:23:41.762Z,12.70
2017-09-16T18:26:09.193Z,12.70
2017-09-16T18:28:37.393Z,12.80
2017-09-16T18:31:04.824Z,12.70
2017-09-16T18:33:32.259Z,12.70
2017-09-16T18:36:00.462Z,12.80
2017-09-16T18:38:27.918Z,12.80
2017-09-16T18:40:55.343Z,12.80
2017-09-16T18:43:22.782Z,12.80
2017-09-16T18:45:50.207Z,12.80
2017-09-16T18:48:17.653Z,12.80
2017-09-16T18:50:45.077Z,12.80
2017-09-16T18:53:13.277Z,12.70
2017-09-16T18:55:40.702Z,12.70
2017-09-16T18:58:08.157Z,12.70
2017-09-16T19:00:35.584Z,12.70
2017-09-16T19:03:03.023Z,12.70
2017-09-16T19:05:30.456Z,12.70
2017-09-16T19:07:57.890Z,12.60
2017-09-16T19:10:25.317Z,12.70
2017-09-16T19:12:52.750Z,12.70
2017-09-16T19:15:20.189Z,12.70
2017-09-16T19:17:47.618Z,12.70
2017-09-16T19:20:15.854Z,12.70
2017-09-16T19:22:43.244Z,12.70
2017-09-16T19:25:10.691Z,12.70
2017-09-16T19:27:38.121Z,12.70
2017-09-16T19:30:05.585Z,12.70
2017-09-16T19:32:33.023Z,12.70
2017-09-16T19:35:00.443Z,12.70
2017-09-16T19:37:28.651Z,12.80
2017-09-16T19:39:56.090Z,12.70
2017-09-16T19:42:23.938Z,12.70
2017-09-16T19:44:52.167Z,12.70
2017-09-16T19:47:19.597Z,12.70
2017-09-16T19:49:47.041Z,12.60
2017-09-16T19:52:16.057Z,12.60
2017-09-16T19:54:43.488Z,12.60
2017-09-16T19:57:10.929Z,12.50
2017-09-16T19:59:38.390Z,12.60
2017-09-16T20:02:06.593Z,12.60
2017-09-16T20:04:34.044Z,12.60
2017-09-16T20:07:02.230Z,12.60
2017-09-16T20:09:29.655Z,12.60
2017-09-16T20:11:57.845Z,12.50
2017-09-16T20:14:25.287Z,12.50
2017-09-16T20:16:53.477Z,12.50
2017-09-16T20:19:20.918Z,12.50
2017-09-16T20:21:48.341Z,12.50
2017-09-16T20:24:15.776Z,12.40
2017-09-16T20:26:44.301Z,12.50
2017-09-16T20:29:11.753Z,12.40
2017-09-16T20:31:39.185Z,12.40
2017-09-16T20:34:06.627Z,12.40
2017-09-16T20:36:34.065Z,12.30
2017-09-16T20:39:01.493Z,12.20
2017-09-16T20:41:29.771Z,12.00
2017-09-16T20:43:57.965Z,12.00
2017-09-16T20:46:25.409Z,12.00
2017-09-16T20:48:53.613Z,11.90
2017-09-16T20:51:21.057Z,11.90
2017-09-16T20:53:48.497Z,11.80
2017-09-16T20:56:16.701Z,11.60
2017-09-16T20:58:44.170Z,11.60
2017-09-16T21:01:11.616Z,11.60
2017-09-16T21:03:39.069Z,11.50
2017-09-16T21:06:06.520Z,11.50
2017-09-16T21:08:33.964Z,11.50
2017-09-16T21:11:02.166Z,11.50
2017-09-16T21:13:29.620Z,11.50
2017-09-16T21:15:57.057Z,11.50
2017-09-16T21:18:24.486Z,11.50
2017-09-16T21:20:51.917Z,11.40
2017-09-16T21:23:19.361Z,11.40
2017-09-16T21:25:46.803Z,11.40
2017-09-16T21:28:14.233Z,11.40
2017-09-16T21:30:41.670Z,11.40
2017-09-16T21:33:09.102Z,11.40
2017-09-16T21:35:37.613Z,11.40
2017-09-16T21:38:05.869Z,11.30
2017-09-16T21:40:33.300Z,11.20
2017-09-16T21:43:00.797Z,11.20
2017-09-16T21:45:28.240Z,11.30
2017-09-16T21:47:55.669Z,11.30
2017-09-16T21:50:23.117Z,11.30
2017-09-16T21:52:50.552Z,11.20
2017-09-16T21:55:18.017Z,11.20
2017-09-16T21:57:46.205Z,11.10
2017-09-16T22:00:13.661Z,11.00
2017-09-16T22:02:41.089Z,11.00
2017-09-16T22:05:09.301Z,11.00
2017-09-16T22:07:36.728Z,11.00
2017-09-16T22:10:04.164Z,10.90
2017-09-16T22:12:32.366Z,10.90
2017-09-16T22:14:59.893Z,10.90
2017-09-16T22:17:27.328Z,10.80
2017-09-16T22:19:54.774Z,10.80
2017-09-16T22:22:22.204Z,10.80
2017-09-16T22:24:49.629Z,10.70
2017-09-16T22:27:17.861Z,10.60
2017-09-16T22:29:45.264Z,10.60
2017-09-16T22:32:13.479Z,10.50
2017-09-16T22:34:40.908Z,10.50
2017-09-16T22:37:08.345Z,10.50
2017-09-16T22:39:36.546Z,10.50
2017-09-16T22:42:03.993Z,10.50
2017-09-16T22:44:31.424Z,10.40
2017-09-16T22:46:58.858Z,10.40
2017-09-16T22:49:26.293Z,10.40
2017-09-16T22:51:53.729Z,10.30
2017-09-16T22:54:21.165Z,10.30
2017-09-16T22:56:49.361Z,10.20
2017-09-16T22:59:16.785Z,10.20
2017-09-16T23:01:44.988Z,10.20
2017-09-16T23:04:12.413Z,10.20
2017-09-16T23:06:39.845Z,10.20
2017-09-16T23:09:07.277Z,10.20
2017-09-16T23:11:34.714Z,10.20
2017-09-16T23:14:02.142Z,10.10
2017-09-16T23:16:30.348Z,10.10
2017-09-16T23:18:57.773Z,10.10
2017-09-16T23:21:25.217Z,10.10
2017-09-16T23:23:52.650Z,10.10
2017-09-16T23:26:20.089Z,10.10
2017-09-16T23:28:47.600Z,10.00
2017-09-16T23:31:15.825Z,9.90
2017-09-16T23:33:43.244Z,9.90
2017-09-16T23:36:11.440Z,9.90
2017-09-16T23:38:38.861Z,9.90
2017-09-16T23:41:06.296Z,9.90
2017-09-16T23:43:33.725Z,9.90
2017-09-16T23:46:01.153Z,9.80
2017-09-16T23:48:28.589Z,9.80
2017-09-16T23:50:56.017Z,9.80
2017-09-16T23:53:23.445Z,9.70
2017-09-16T23:55:50.868Z,9.70
2017-09-16T23:58:19.070Z,9.70
